createdAt,value
2023-02-19T10:42:24.000Z,62.457275
2023-02-19T10:42:44.000Z,62.152100
2023-02-19T10:43:05.000Z,61.505127
2023-02-19T10:43:25.000Z,61.297607
2023-02-19T10:43:45.000Z,61.810303
2023-02-19T10:44:05.000Z,62.017822
2023-02-19T10:44:26.000Z,62.707520
2023-02-19T10:44:46.000Z,63.323975
2023-02-19T10:45:06.000Z,61.682129
2023-02-19T10:45:26.000Z,61.474609
2023-02-19T10:45:47.000Z,60.449219
2023-02-19T10:46:07.000Z,59.832764
2023-02-19T10:46:27.000Z,60.168457
2023-02-19T10:46:49.000Z,60.577393
2023-02-19T10:47:09.000Z,60.473633
2023-02-19T10:47:29.000Z,60.168457
2023-02-19T10:47:49.000Z,60.681152
2023-02-19T10:48:09.000Z,60.986328
2023-02-19T10:48:30.000Z,60.888672
2023-02-19T10:48:50.000Z,60.577393
2023-02-19T10:49:10.000Z,60.986328
2023-02-19T10:49:31.000Z,61.090088
2023-02-19T10:49:51.000Z,61.401367
2023-02-19T10:50:11.000Z,61.505127
2023-02-19T10:50:31.000Z,61.810303
2023-02-19T10:50:52.000Z,62.353516
2023-02-19T10:51:20.000Z,62.249756
2023-02-19T10:51:30.000Z,62.664795
2023-02-19T12:18:05.000Z,58.856201
2023-02-19T12:18:25.000Z,58.520508
2023-02-19T12:18:46.000Z,56.976318
2023-02-19T12:19:24.000Z,55.407715
2023-02-19T12:19:44.000Z,55.615234
2023-02-19T12:20:04.000Z,57.879639
2023-02-19T12:20:25.000Z,59.930420
2023-02-19T12:20:45.000Z,59.698486
2023-02-19T12:21:05.000Z,57.025146
2023-02-19T12:21:25.000Z,56.103516
2023-02-19T12:21:46.000Z,55.895996
2023-02-19T12:22:12.000Z,55.078125
2023-02-19T12:22:32.000Z,55.151367
2023-02-19T12:22:53.000Z,54.229736
2023-02-19T12:23:13.000Z,53.918457
2023-02-19T12:23:33.000Z,52.709961
2023-02-19T12:23:53.000Z,53.430176
2023-02-19T12:24:14.000Z,53.350830
2023-02-19T12:24:34.000Z,54.071045
2023-02-19T12:24:54.000Z,55.590820
2023-02-19T12:25:15.000Z,54.766846
2023-02-19T12:25:35.000Z,53.454590
2023-02-19T12:25:55.000Z,53.149414
2023-02-19T12:26:15.000Z,52.838135
2023-02-19T12:26:35.000Z,52.941895
2023-02-19T12:26:55.000Z,53.253174
2023-02-19T12:27:15.000Z,53.558350
2023-02-19T12:27:36.000Z,53.967285
2023-02-19T12:27:56.000Z,53.350830
2023-02-19T12:28:16.000Z,53.558350
2023-02-19T12:28:36.000Z,53.894043
2023-02-19T12:28:57.000Z,54.406738
2023-02-19T12:29:17.000Z,54.302979
2023-02-19T12:29:37.000Z,53.894043
2023-02-19T12:29:57.000Z,54.095459
2023-02-19T12:30:18.000Z,54.406738
2023-02-19T12:30:38.000Z,53.479004
2023-02-19T12:30:58.000Z,53.375244
2023-02-19T12:31:18.000Z,53.503418
2023-02-19T12:31:39.000Z,54.125977
2023-02-19T12:31:59.000Z,54.742432
2023-02-19T12:32:19.000Z,54.431152
2023-02-19T12:32:39.000Z,54.125977
2023-02-19T12:33:00.000Z,53.814697
2023-02-19T12:33:20.000Z,53.814697
2023-02-19T12:33:40.000Z,54.125977
2023-02-19T12:34:00.000Z,54.327393
2023-02-19T12:34:21.000Z,54.327393
2023-02-19T12:34:41.000Z,54.022217
2023-02-19T12:35:01.000Z,53.710938
2023-02-19T12:35:21.000Z,54.125977
2023-02-19T12:35:42.000Z,54.022217
2023-02-19T12:36:02.000Z,54.046631
2023-02-19T12:36:22.000Z,54.150391
2023-02-19T12:36:42.000Z,54.870605
2023-02-19T12:37:03.000Z,54.663086
2023-02-19T12:37:23.000Z,55.175781
2023-02-19T12:37:43.000Z,55.590820
2023-02-19T12:38:03.000Z,55.895996
2023-02-19T12:38:24.000Z,55.383301
2023-02-19T12:38:44.000Z,55.383301
2023-02-19T12:39:09.000Z,57.440186
2023-02-19T12:39:29.000Z,56.927490
2023-02-19T12:39:50.000Z,57.440186
2023-02-19T12:40:10.000Z,58.062744
2023-02-19T12:40:30.000Z,56.823730
2023-02-19T12:40:50.000Z,55.895996
2023-02-19T12:41:11.000Z,55.175781
2023-02-19T12:41:31.000Z,54.254150
2023-02-19T12:41:51.000Z,54.046631
2023-02-19T12:42:11.000Z,53.942871
2023-02-19T12:42:32.000Z,54.455566
2023-02-19T12:42:52.000Z,55.798340
2023-02-19T12:43:12.000Z,56.207275
2023-02-19T12:43:33.000Z,56.207275
2023-02-19T12:43:53.000Z,55.895996
2023-02-19T12:44:13.000Z,56.182861
2023-02-19T12:44:33.000Z,55.047607
2023-02-19T12:44:54.000Z,54.534912
2023-02-19T12:45:14.000Z,54.638672
2023-02-19T12:45:34.000Z,54.327393
2023-02-19T12:45:54.000Z,54.638672
2023-02-19T12:46:15.000Z,53.607178
2023-02-19T12:46:35.000Z,52.685547
2023-02-19T12:46:55.000Z,52.270508
2023-02-19T12:47:16.000Z,52.246094
2023-02-19T12:47:36.000Z,51.629639
2023-02-19T12:47:56.000Z,52.142334
2023-02-19T12:48:16.000Z,52.661133
2023-02-19T12:48:37.000Z,53.277588
2023-02-19T12:48:57.000Z,53.582764
2023-02-19T12:49:17.000Z,53.479004
2023-02-19T12:49:37.000Z,53.375244
2023-02-19T12:49:38.000Z,53.479004
2023-02-19T12:50:38.000Z,52.374268
2023-02-19T12:50:58.000Z,52.062988
2023-02-19T12:51:19.000Z,52.166748
2023-02-19T12:51:39.000Z,52.374268
2023-02-19T12:51:59.000Z,52.166748
2023-02-19T12:52:20.000Z,52.062988
2023-02-19T12:52:40.000Z,52.270508
2023-02-19T12:53:00.000Z,52.685547
2023-02-19T12:53:20.000Z,52.685547
2023-02-19T12:53:41.000Z,52.990723
2023-02-19T12:54:14.000Z,53.479004
2023-02-19T12:54:34.000Z,52.038574
2023-02-19T12:54:54.000Z,51.422119
2023-02-19T12:55:19.000Z,51.013184
2023-02-19T12:55:39.000Z,51.220703
2023-02-19T12:55:59.000Z,51.220703
2023-02-19T12:56:19.000Z,50.805664
2023-02-19T12:57:02.000Z,51.629639
